sensor_id;sensor_type;location;lat;lon;timestamp;P1;durP1;ratioP1;P2;durP2;ratioP2
8556;SDS011;4316;53.840;10.762;2023-06-05T00:01:55;3.90;;;2.30;;
8556;SDS011;4316;53.840;10.762;2023-06-05T00:04:20;6.83;;;2.20;;
8556;SDS011;4316;53.840;10.762;2023-06-05T00:06:46;4.83;;;2.83;;
8556;SDS011;4316;53.840;10.762;2023-06-05T00:09:12;3.53;;;2.20;;
8556;SDS011;4316;53.840;10.762;2023-06-05T00:11:38;3.23;;;2.43;;
8556;SDS011;4316;53.840;10.762;2023-06-05T00:14:04;6.50;;;2.80;;
8556;SDS011;4316;53.840;10.762;2023-06-05T00:16:30;4.07;;;2.50;;
8556;SDS011;4316;53.840;10.762;2023-06-05T00:18:56;3.40;;;2.33;;
8556;SDS011;4316;53.840;10.762;2023-06-05T00:21:22;4.03;;;2.70;;
8556;SDS011;4316;53.840;10.762;2023-06-05T00:23:50;3.20;;;2.10;;
8556;SDS011;4316;53.840;10.762;2023-06-05T00:26:15;3.97;;;2.70;;
8556;SDS011;4316;53.840;10.762;2023-06-05T00:28:41;4.60;;;2.37;;
8556;SDS011;4316;53.840;10.762;2023-06-05T00:31:06;2.50;;;2.30;;
8556;SDS011;4316;53.840;10.762;2023-06-05T00:33:32;3.50;;;2.23;;
8556;SDS011;4316;53.840;10.762;2023-06-05T00:35:58;5.60;;;2.67;;
8556;SDS011;4316;53.840;10.762;2023-06-05T00:38:24;5.77;;;2.47;;
8556;SDS011;4316;53.840;10.762;2023-06-05T00:40:50;4.00;;;2.70;;
8556;SDS011;4316;53.840;10.762;2023-06-05T00:43:17;3.63;;;2.53;;
8556;SDS011;4316;53.840;10.762;2023-06-05T00:45:42;3.70;;;2.60;;
8556;SDS011;4316;53.840;10.762;2023-06-05T00:48:08;4.70;;;2.63;;
8556;SDS011;4316;53.840;10.762;2023-06-05T00:50:35;5.20;;;2.70;;
8556;SDS011;4316;53.840;10.762;2023-06-05T00:53:02;4.83;;;2.73;;
8556;SDS011;4316;53.840;10.762;2023-06-05T00:55:30;4.10;;;2.67;;
8556;SDS011;4316;53.840;10.762;2023-06-05T00:57:57;6.77;;;3.17;;
8556;SDS011;4316;53.840;10.762;2023-06-05T01:00:23;6.50;;;3.40;;
8556;SDS011;4316;53.840;10.762;2023-06-05T01:02:50;5.03;;;2.80;;
8556;SDS011;4316;53.840;10.762;2023-06-05T01:05:19;3.50;;;2.40;;
8556;SDS011;4316;53.840;10.762;2023-06-05T01:07:45;4.40;;;2.90;;
8556;SDS011;4316;53.840;10.762;2023-06-05T01:10:13;4.30;;;2.80;;
8556;SDS011;4316;53.840;10.762;2023-06-05T01:15:37;3.30;;;2.60;;
8556;SDS011;4316;53.840;10.762;2023-06-05T01:18:03;8.80;;;3.20;;
8556;SDS011;4316;53.840;10.762;2023-06-05T01:20:37;5.80;;;2.80;;
8556;SDS011;4316;53.840;10.762;2023-06-05T01:23:05;5.27;;;2.63;;
8556;SDS011;4316;53.840;10.762;2023-06-05T01:25:34;4.70;;;2.90;;
8556;SDS011;4316;53.840;10.762;2023-06-05T01:28:07;4.17;;;2.53;;
8556;SDS011;4316;53.840;10.762;2023-06-05T01:30:49;7.00;;;2.50;;
8556;SDS011;4316;53.840;10.762;2023-06-05T01:35:54;4.93;;;2.73;;
8556;SDS011;4316;53.840;10.762;2023-06-05T01:38:20;6.97;;;2.60;;
8556;SDS011;4316;53.840;10.762;2023-06-05T01:40:48;5.63;;;2.47;;
8556;SDS011;4316;53.840;10.762;2023-06-05T01:43:16;5.10;;;2.30;;
8556;SDS011;4316;53.840;10.762;2023-06-05T01:45:43;5.13;;;2.60;;
8556;SDS011;4316;53.840;10.762;2023-06-05T01:48:09;2.57;;;2.30;;
8556;SDS011;4316;53.840;10.762;2023-06-05T01:50:38;5.07;;;2.57;;
8556;SDS011;4316;53.840;10.762;2023-06-05T01:53:04;11.53;;;2.50;;
8556;SDS011;4316;53.840;10.762;2023-06-05T01:55:31;4.03;;;2.40;;
8556;SDS011;4316;53.840;10.762;2023-06-05T01:57:56;3.37;;;2.50;;
8556;SDS011;4316;53.840;10.762;2023-06-05T02:00:22;4.97;;;2.90;;
8556;SDS011;4316;53.840;10.762;2023-06-05T02:02:48;3.93;;;2.80;;
8556;SDS011;4316;53.840;10.762;2023-06-05T02:05:15;3.13;;;2.10;;
8556;SDS011;4316;53.840;10.762;2023-06-05T02:07:45;2.60;;;2.40;;
8556;SDS011;4316;53.840;10.762;2023-06-05T02:10:18;4.10;;;2.23;;
8556;SDS011;4316;53.840;10.762;2023-06-05T02:12:45;4.90;;;2.73;;
8556;SDS011;4316;53.840;10.762;2023-06-05T02:15:11;6.43;;;2.80;;
8556;SDS011;4316;53.840;10.762;2023-06-05T02:17:41;6.03;;;2.43;;
8556;SDS011;4316;53.840;10.762;2023-06-05T02:20:16;2.70;;;2.50;;
8556;SDS011;4316;53.840;10.762;2023-06-05T02:22:42;2.70;;;2.50;;
8556;SDS011;4316;53.840;10.762;2023-06-05T02:25:09;4.63;;;2.63;;
8556;SDS011;4316;53.840;10.762;2023-06-05T02:27:36;3.83;;;2.47;;
8556;SDS011;4316;53.840;10.762;2023-06-05T02:30:02;3.53;;;2.70;;
8556;SDS011;4316;53.840;10.762;2023-06-05T02:32:28;2.70;;;2.50;;
8556;SDS011;4316;53.840;10.762;2023-06-05T02:34:54;5.77;;;2.60;;
8556;SDS011;4316;53.840;10.762;2023-06-05T02:37:22;2.83;;;2.60;;
8556;SDS011;4316;53.840;10.762;2023-06-05T02:39:51;2.20;;;2.10;;
8556;SDS011;4316;53.840;10.762;2023-06-05T02:42:17;4.67;;;2.47;;
8556;SDS011;4316;53.840;10.762;2023-06-05T02:44:44;3.07;;;2.77;;
8556;SDS011;4316;53.840;10.762;2023-06-05T02:47:11;2.60;;;2.33;;
8556;SDS011;4316;53.840;10.762;2023-06-05T02:49:37;3.93;;;3.10;;
8556;SDS011;4316;53.840;10.762;2023-06-05T02:52:03;5.30;;;2.73;;
8556;SDS011;4316;53.840;10.762;2023-06-05T02:54:29;5.93;;;2.43;;
8556;SDS011;4316;53.840;10.762;2023-06-05T02:56:58;2.77;;;2.50;;
8556;SDS011;4316;53.840;10.762;2023-06-05T02:59:26;5.40;;;2.50;;
8556;SDS011;4316;53.840;10.762;2023-06-05T03:01:52;6.20;;;3.00;;
8556;SDS011;4316;53.840;10.762;2023-06-05T03:04:19;3.90;;;2.83;;
8556;SDS011;4316;53.840;10.762;2023-06-05T03:06:47;6.50;;;2.83;;
8556;SDS011;4316;53.840;10.762;2023-06-05T03:09:13;2.50;;;2.30;;
8556;SDS011;4316;53.840;10.762;2023-06-05T03:11:39;3.20;;;2.70;;
8556;SDS011;4316;53.840;10.762;2023-06-05T03:14:06;3.30;;;3.00;;
8556;SDS011;4316;53.840;10.762;2023-06-05T03:16:34;5.53;;;2.70;;
8556;SDS011;4316;53.840;10.762;2023-06-05T03:19:06;5.47;;;2.70;;
8556;SDS011;4316;53.840;10.762;2023-06-05T03:21:36;3.30;;;2.73;;
8556;SDS011;4316;53.840;10.762;2023-06-05T03:24:06;3.63;;;2.40;;
8556;SDS011;4316;53.840;10.762;2023-06-05T03:26:34;3.13;;;2.80;;
8556;SDS011;4316;53.840;10.762;2023-06-05T03:29:00;3.77;;;2.77;;
8556;SDS011;4316;53.840;10.762;2023-06-05T03:31:28;3.43;;;2.80;;
8556;SDS011;4316;53.840;10.762;2023-06-05T03:33:53;3.80;;;2.70;;
8556;SDS011;4316;53.840;10.762;2023-06-05T03:36:19;5.57;;;3.00;;
8556;SDS011;4316;53.840;10.762;2023-06-05T03:38:48;4.07;;;2.93;;
8556;SDS011;4316;53.840;10.762;2023-06-05T03:41:13;3.37;;;3.07;;
8556;SDS011;4316;53.840;10.762;2023-06-05T03:43:39;11.30;;;2.90;;
8556;SDS011;4316;53.840;10.762;2023-06-05T03:46:04;3.53;;;2.80;;
8556;SDS011;4316;53.840;10.762;2023-06-05T03:48:30;3.30;;;2.83;;
8556;SDS011;4316;53.840;10.762;2023-06-05T03:50:56;5.50;;;2.90;;
8556;SDS011;4316;53.840;10.762;2023-06-05T03:53:23;5.93;;;2.70;;
8556;SDS011;4316;53.840;10.762;2023-06-05T03:55:50;5.00;;;2.50;;
8556;SDS011;4316;53.840;10.762;2023-06-05T03:58:22;2.93;;;2.50;;
8556;SDS011;4316;53.840;10.762;2023-06-05T04:00:51;5.60;;;3.40;;
8556;SDS011;4316;53.840;10.762;2023-06-05T04:03:18;3.73;;;3.20;;
8556;SDS011;4316;53.840;10.762;2023-06-05T04:05:47;4.07;;;3.20;;
8556;SDS011;4316;53.840;10.762;2023-06-05T04:08:13;3.50;;;2.77;;
8556;SDS011;4316;53.840;10.762;2023-06-05T04:10:39;3.60;;;2.93;;
8556;SDS011;4316;53.840;10.762;2023-06-05T04:13:05;3.67;;;2.90;;
8556;SDS011;4316;53.840;10.762;2023-06-05T04:15:33;4.13;;;2.77;;
8556;SDS011;4316;53.840;10.762;2023-06-05T04:18:00;3.10;;;2.70;;
8556;SDS011;4316;53.840;10.762;2023-06-05T04:20:26;2.97;;;2.67;;
8556;SDS011;4316;53.840;10.762;2023-06-05T04:22:53;2.43;;;2.23;;
8556;SDS011;4316;53.840;10.762;2023-06-05T04:25:19;6.23;;;2.47;;
8556;SDS011;4316;53.840;10.762;2023-06-05T04:27:47;4.00;;;2.73;;
8556;SDS011;4316;53.840;10.762;2023-06-05T04:30:15;3.73;;;2.57;;
8556;SDS011;4316;53.840;10.762;2023-06-05T04:32:41;6.87;;;3.20;;
8556;SDS011;4316;53.840;10.762;2023-06-05T04:35:08;3.10;;;2.33;;
8556;SDS011;4316;53.840;10.762;2023-06-05T04:37:35;7.70;;;3.00;;
8556;SDS011;4316;53.840;10.762;2023-06-05T04:40:02;4.07;;;2.47;;
8556;SDS011;4316;53.840;10.762;2023-06-05T04:42:34;3.93;;;3.00;;
8556;SDS011;4316;53.840;10.762;2023-06-05T04:45:04;5.07;;;2.90;;
8556;SDS011;4316;53.840;10.762;2023-06-05T04:47:35;4.43;;;2.83;;
8556;SDS011;4316;53.840;10.762;2023-06-05T04:50:02;3.53;;;2.73;;
8556;SDS011;4316;53.840;10.762;2023-06-05T04:52:30;6.17;;;3.30;;
8556;SDS011;4316;53.840;10.762;2023-06-05T04:55:00;9.63;;;3.63;;
8556;SDS011;4316;53.840;10.762;2023-06-05T04:57:27;7.60;;;4.07;;
8556;SDS011;4316;53.840;10.762;2023-06-05T04:59:54;4.50;;;3.90;;
8556;SDS011;4316;53.840;10.762;2023-06-05T05:02:22;7.30;;;4.60;;
8556;SDS011;4316;53.840;10.762;2023-06-05T05:04:48;8.97;;;4.40;;
8556;SDS011;4316;53.840;10.762;2023-06-05T05:07:14;11.17;;;4.77;;
8556;SDS011;4316;53.840;10.762;2023-06-05T05:09:42;7.30;;;4.73;;
8556;SDS011;4316;53.840;10.762;2023-06-05T05:12:09;6.57;;;4.23;;
8556;SDS011;4316;53.840;10.762;2023-06-05T05:14:36;9.43;;;4.33;;
8556;SDS011;4316;53.840;10.762;2023-06-05T05:17:01;12.17;;;4.83;;
8556;SDS011;4316;53.840;10.762;2023-06-05T05:19:28;12.97;;;4.23;;
8556;SDS011;4316;53.840;10.762;2023-06-05T05:21:57;17.70;;;4.97;;
8556;SDS011;4316;53.840;10.762;2023-06-05T05:24:22;12.77;;;4.83;;
8556;SDS011;4316;53.840;10.762;2023-06-05T05:26:50;10.90;;;4.60;;
8556;SDS011;4316;53.840;10.762;2023-06-05T05:29:16;8.10;;;4.47;;
8556;SDS011;4316;53.840;10.762;2023-06-05T05:31:43;9.70;;;5.07;;
8556;SDS011;4316;53.840;10.762;2023-06-05T05:34:09;8.93;;;4.17;;
8556;SDS011;4316;53.840;10.762;2023-06-05T05:36:35;6.60;;;4.27;;
8556;SDS011;4316;53.840;10.762;2023-06-05T05:39:04;9.10;;;4.17;;
8556;SDS011;4316;53.840;10.762;2023-06-05T05:41:31;4.47;;;3.63;;
8556;SDS011;4316;53.840;10.762;2023-06-05T05:43:56;12.23;;;4.37;;
8556;SDS011;4316;53.840;10.762;2023-06-05T05:46:22;14.23;;;4.73;;
8556;SDS011;4316;53.840;10.762;2023-06-05T05:48:47;7.80;;;4.13;;
8556;SDS011;4316;53.840;10.762;2023-06-05T05:51:13;8.50;;;4.17;;
8556;SDS011;4316;53.840;10.762;2023-06-05T05:53:38;13.57;;;4.33;;
8556;SDS011;4316;53.840;10.762;2023-06-05T05:56:04;9.47;;;4.27;;
8556;SDS011;4316;53.840;10.762;2023-06-05T05:58:30;14.03;;;4.47;;
8556;SDS011;4316;53.840;10.762;2023-06-05T06:00:56;7.00;;;4.60;;
8556;SDS011;4316;53.840;10.762;2023-06-05T06:03:22;8.17;;;4.70;;
8556;SDS011;4316;53.840;10.762;2023-06-05T06:05:48;8.30;;;4.50;;
8556;SDS011;4316;53.840;10.762;2023-06-05T06:08:14;9.67;;;4.10;;
8556;SDS011;4316;53.840;10.762;2023-06-05T06:10:40;12.13;;;4.83;;
8556;SDS011;4316;53.840;10.762;2023-06-05T06:13:06;11.93;;;4.33;;
8556;SDS011;4316;53.840;10.762;2023-06-05T06:15:31;10.67;;;5.20;;
8556;SDS011;4316;53.840;10.762;2023-06-05T06:17:57;11.07;;;4.30;;
8556;SDS011;4316;53.840;10.762;2023-06-05T06:20:25;11.97;;;4.20;;
8556;SDS011;4316;53.840;10.762;2023-06-05T06:22:50;13.53;;;4.40;;
8556;SDS011;4316;53.840;10.762;2023-06-05T06:25:16;13.20;;;4.67;;
8556;SDS011;4316;53.840;10.762;2023-06-05T06:27:45;9.30;;;3.80;;
8556;SDS011;4316;53.840;10.762;2023-06-05T06:30:13;14.80;;;3.70;;
8556;SDS011;4316;53.840;10.762;2023-06-05T06:32:40;7.85;;;3.60;;
8556;SDS011;4316;53.840;10.762;2023-06-05T06:35:06;7.37;;;3.53;;
8556;SDS011;4316;53.840;10.762;2023-06-05T06:37:32;6.53;;;3.17;;
8556;SDS011;4316;53.840;10.762;2023-06-05T06:39:58;7.03;;;3.13;;
8556;SDS011;4316;53.840;10.762;2023-06-05T06:42:24;6.78;;;3.20;;
8556;SDS011;4316;53.840;10.762;2023-06-05T06:45:12;7.65;;;3.42;;
8556;SDS011;4316;53.840;10.762;2023-06-05T06:47:37;6.55;;;3.17;;
8556;SDS011;4316;53.840;10.762;2023-06-05T06:50:03;8.32;;;3.25;;
8556;SDS011;4316;53.840;10.762;2023-06-05T06:52:29;6.70;;;2.92;;
8556;SDS011;4316;53.840;10.762;2023-06-05T06:54:55;3.72;;;2.92;;
8556;SDS011;4316;53.840;10.762;2023-06-05T06:57:21;12.02;;;3.58;;
8556;SDS011;4316;53.840;10.762;2023-06-05T06:59:47;4.75;;;2.67;;
8556;SDS011;4316;53.840;10.762;2023-06-05T07:02:14;7.38;;;3.17;;
8556;SDS011;4316;53.840;10.762;2023-06-05T07:04:40;5.93;;;3.30;;
8556;SDS011;4316;53.840;10.762;2023-06-05T07:07:08;7.80;;;3.13;;
8556;SDS011;4316;53.840;10.762;2023-06-05T07:09:35;5.53;;;2.90;;
8556;SDS011;4316;53.840;10.762;2023-06-05T07:12:01;5.05;;;2.78;;
8556;SDS011;4316;53.840;10.762;2023-06-05T07:14:30;6.53;;;2.80;;
8556;SDS011;4316;53.840;10.762;2023-06-05T07:16:57;8.10;;;2.67;;
8556;SDS011;4316;53.840;10.762;2023-06-05T07:19:24;4.38;;;2.85;;
8556;SDS011;4316;53.840;10.762;2023-06-05T07:21:54;5.50;;;2.58;;
8556;SDS011;4316;53.840;10.762;2023-06-05T07:24:22;8.93;;;2.63;;
8556;SDS011;4316;53.840;10.762;2023-06-05T07:26:53;15.27;;;2.88;;
8556;SDS011;4316;53.840;10.762;2023-06-05T07:29:20;10.55;;;2.92;;
8556;SDS011;4316;53.840;10.762;2023-06-05T07:31:49;7.40;;;2.85;;
8556;SDS011;4316;53.840;10.762;2023-06-05T07:34:19;17.55;;;2.75;;
8556;SDS011;4316;53.840;10.762;2023-06-05T07:36:46;8.20;;;2.40;;
8556;SDS011;4316;53.840;10.762;2023-06-05T07:39:13;9.13;;;2.90;;
8556;SDS011;4316;53.840;10.762;2023-06-05T07:41:40;12.25;;;2.92;;
8556;SDS011;4316;53.840;10.762;2023-06-05T07:44:15;6.93;;;2.30;;
8556;SDS011;4316;53.840;10.762;2023-06-05T07:46:45;6.22;;;2.97;;
8556;SDS011;4316;53.840;10.762;2023-06-05T07:49:12;10.68;;;3.08;;
8556;SDS011;4316;53.840;10.762;2023-06-05T07:51:39;9.15;;;2.80;;
8556;SDS011;4316;53.840;10.762;2023-06-05T07:54:09;10.63;;;2.60;;
8556;SDS011;4316;53.840;10.762;2023-06-05T07:56:36;9.18;;;2.75;;
8556;SDS011;4316;53.840;10.762;2023-06-05T07:59:03;7.15;;;2.53;;
8556;SDS011;4316;53.840;10.762;2023-06-05T08:01:30;4.22;;;2.25;;
8556;SDS011;4316;53.840;10.762;2023-06-05T08:03:57;12.00;;;2.47;;
8556;SDS011;4316;53.840;10.762;2023-06-05T08:06:23;5.43;;;2.78;;
8556;SDS011;4316;53.840;10.762;2023-06-05T08:08:49;4.22;;;2.10;;
8556;SDS011;4316;53.840;10.762;2023-06-05T08:11:15;3.33;;;2.22;;
8556;SDS011;4316;53.840;10.762;2023-06-05T08:13:41;4.03;;;1.80;;
8556;SDS011;4316;53.840;10.762;2023-06-05T08:16:06;6.03;;;2.38;;
8556;SDS011;4316;53.840;10.762;2023-06-05T08:18:32;8.40;;;2.03;;
8556;SDS011;4316;53.840;10.762;2023-06-05T08:20:58;9.80;;;2.40;;
8556;SDS011;4316;53.840;10.762;2023-06-05T08:23:24;4.65;;;2.10;;
8556;SDS011;4316;53.840;10.762;2023-06-05T08:25:49;3.85;;;1.90;;
8556;SDS011;4316;53.840;10.762;2023-06-05T08:28:15;3.40;;;2.00;;
8556;SDS011;4316;53.840;10.762;2023-06-05T08:30:41;4.65;;;1.83;;
8556;SDS011;4316;53.840;10.762;2023-06-05T08:33:07;6.38;;;1.85;;
8556;SDS011;4316;53.840;10.762;2023-06-05T08:35:32;2.78;;;1.80;;
8556;SDS011;4316;53.840;10.762;2023-06-05T08:37:58;3.28;;;1.92;;
8556;SDS011;4316;53.840;10.762;2023-06-05T08:40:26;5.03;;;2.33;;
8556;SDS011;4316;53.840;10.762;2023-06-05T08:42:53;7.05;;;2.03;;
8556;SDS011;4316;53.840;10.762;2023-06-05T08:45:19;6.95;;;1.73;;
8556;SDS011;4316;53.840;10.762;2023-06-05T08:47:50;7.90;;;2.03;;
8556;SDS011;4316;53.840;10.762;2023-06-05T08:50:16;8.18;;;2.00;;
8556;SDS011;4316;53.840;10.762;2023-06-05T08:52:42;4.10;;;2.00;;
8556;SDS011;4316;53.840;10.762;2023-06-05T08:55:10;6.28;;;2.08;;
8556;SDS011;4316;53.840;10.762;2023-06-05T08:57:40;5.00;;;2.03;;
8556;SDS011;4316;53.840;10.762;2023-06-05T09:00:07;4.72;;;1.90;;
8556;SDS011;4316;53.840;10.762;2023-06-05T09:02:37;7.45;;;2.17;;
8556;SDS011;4316;53.840;10.762;2023-06-05T09:05:04;2.28;;;1.70;;
8556;SDS011;4316;53.840;10.762;2023-06-05T09:07:30;5.35;;;2.25;;
8556;SDS011;4316;53.840;10.762;2023-06-05T09:09:57;3.15;;;2.10;;
8556;SDS011;4316;53.840;10.762;2023-06-05T09:12:23;4.22;;;1.88;;
8556;SDS011;4316;53.840;10.762;2023-06-05T09:14:50;5.82;;;2.20;;
8556;SDS011;4316;53.840;10.762;2023-06-05T09:17:16;4.22;;;1.85;;
8556;SDS011;4316;53.840;10.762;2023-06-05T09:19:42;2.90;;;1.83;;
8556;SDS011;4316;53.840;10.762;2023-06-05T09:22:10;7.72;;;2.38;;
8556;SDS011;4316;53.840;10.762;2023-06-05T09:24:37;2.97;;;1.77;;
8556;SDS011;4316;53.840;10.762;2023-06-05T09:27:07;4.22;;;2.20;;
8556;SDS011;4316;53.840;10.762;2023-06-05T09:29:35;8.07;;;2.33;;
8556;SDS011;4316;53.840;10.762;2023-06-05T09:32:03;3.95;;;2.00;;
8556;SDS011;4316;53.840;10.762;2023-06-05T09:34:34;9.80;;;2.50;;
8556;SDS011;4316;53.840;10.762;2023-06-05T09:37:08;8.80;;;2.17;;
8556;SDS011;4316;53.840;10.762;2023-06-05T09:39:39;6.15;;;1.92;;
8556;SDS011;4316;53.840;10.762;2023-06-05T09:42:08;5.72;;;2.17;;
8556;SDS011;4316;53.840;10.762;2023-06-05T09:44:35;6.25;;;2.08;;
8556;SDS011;4316;53.840;10.762;2023-06-05T09:47:01;4.38;;;1.75;;
8556;SDS011;4316;53.840;10.762;2023-06-05T09:52:04;7.40;;;2.15;;
8556;SDS011;4316;53.840;10.762;2023-06-05T09:54:30;3.42;;;2.00;;
8556;SDS011;4316;53.840;10.762;2023-06-05T09:57:00;5.32;;;1.80;;
8556;SDS011;4316;53.840;10.762;2023-06-05T09:59:28;4.50;;;1.75;;
8556;SDS011;4316;53.840;10.762;2023-06-05T10:02:02;6.40;;;1.45;;
8556;SDS011;4316;53.840;10.762;2023-06-05T10:04:41;3.22;;;1.67;;
8556;SDS011;4316;53.840;10.762;2023-06-05T10:07:11;5.97;;;2.03;;
8556;SDS011;4316;53.840;10.762;2023-06-05T10:09:37;7.28;;;2.10;;
8556;SDS011;4316;53.840;10.762;2023-06-05T10:12:04;6.40;;;2.00;;
8556;SDS011;4316;53.840;10.762;2023-06-05T10:14:32;3.80;;;1.88;;
8556;SDS011;4316;53.840;10.762;2023-06-05T10:16:59;5.75;;;1.55;;
8556;SDS011;4316;53.840;10.762;2023-06-05T10:19:27;3.53;;;1.70;;
8556;SDS011;4316;53.840;10.762;2023-06-05T10:21:53;9.30;;;2.00;;
8556;SDS011;4316;53.840;10.762;2023-06-05T10:24:24;5.13;;;1.90;;
8556;SDS011;4316;53.840;10.762;2023-06-05T10:29:43;4.60;;;1.80;;
8556;SDS011;4316;53.840;10.762;2023-06-05T10:35:48;6.97;;;2.13;;
8556;SDS011;4316;53.840;10.762;2023-06-05T10:38:23;10.85;;;1.98;;
8556;SDS011;4316;53.840;10.762;2023-06-05T10:40:54;2.55;;;1.67;;
8556;SDS011;4316;53.840;10.762;2023-06-05T10:43:35;4.13;;;1.88;;
8556;SDS011;4316;53.840;10.762;2023-06-05T10:51:35;5.45;;;1.83;;
8556;SDS011;4316;53.840;10.762;2023-06-05T10:59:23;3.20;;;1.40;;
8556;SDS011;4316;53.840;10.762;2023-06-05T11:07:18;3.90;;;1.95;;
8556;SDS011;4316;53.840;10.762;2023-06-05T11:12:26;12.90;;;2.03;;
8556;SDS011;4316;53.840;10.762;2023-06-05T11:15:05;9.60;;;2.03;;
8556;SDS011;4316;53.840;10.762;2023-06-05T11:17:35;3.17;;;1.70;;
8556;SDS011;4316;53.840;10.762;2023-06-05T11:20:02;6.50;;;1.95;;
8556;SDS011;4316;53.840;10.762;2023-06-05T11:27:59;3.80;;;1.85;;
8556;SDS011;4316;53.840;10.762;2023-06-05T11:30:38;2.03;;;1.70;;
8556;SDS011;4316;53.840;10.762;2023-06-05T11:35:38;9.57;;;2.22;;
8556;SDS011;4316;53.840;10.762;2023-06-05T11:40:34;10.65;;;1.90;;
8556;SDS011;4316;53.840;10.762;2023-06-05T11:43:07;4.95;;;1.88;;
8556;SDS011;4316;53.840;10.762;2023-06-05T11:45:38;5.18;;;1.88;;
8556;SDS011;4316;53.840;10.762;2023-06-05T11:48:07;2.33;;;1.50;;
8556;SDS011;4316;53.840;10.762;2023-06-05T11:50:37;5.18;;;1.50;;
8556;SDS011;4316;53.840;10.762;2023-06-05T11:53:05;1.38;;;1.27;;
8556;SDS011;4316;53.840;10.762;2023-06-05T11:55:36;2.42;;;1.40;;
8556;SDS011;4316;53.840;10.762;2023-06-05T11:58:22;5.97;;;1.90;;
8556;SDS011;4316;53.840;10.762;2023-06-05T12:01:05;3.17;;;1.70;;
8556;SDS011;4316;53.840;10.762;2023-06-05T12:03:32;7.03;;;1.73;;
8556;SDS011;4316;53.840;10.762;2023-06-05T12:06:00;5.13;;;1.80;;
8556;SDS011;4316;53.840;10.762;2023-06-05T12:08:28;4.65;;;1.70;;
8556;SDS011;4316;53.840;10.762;2023-06-05T12:10:58;3.60;;;1.85;;
8556;SDS011;4316;53.840;10.762;2023-06-05T12:16:33;3.65;;;1.80;;
8556;SDS011;4316;53.840;10.762;2023-06-05T12:19:13;2.30;;;1.60;;
8556;SDS011;4316;53.840;10.762;2023-06-05T12:21:40;6.30;;;1.75;;
8556;SDS011;4316;53.840;10.762;2023-06-05T12:24:06;2.95;;;1.80;;
8556;SDS011;4316;53.840;10.762;2023-06-05T12:26:51;4.65;;;2.33;;
8556;SDS011;4316;53.840;10.762;2023-06-05T12:29:30;7.25;;;1.70;;
8556;SDS011;4316;53.840;10.762;2023-06-05T12:31:58;2.67;;;1.50;;
8556;SDS011;4316;53.840;10.762;2023-06-05T12:34:37;5.55;;;1.70;;
8556;SDS011;4316;53.840;10.762;2023-06-05T12:37:05;4.15;;;2.03;;
8556;SDS011;4316;53.840;10.762;2023-06-05T12:39:33;3.53;;;1.98;;
8556;SDS011;4316;53.840;10.762;2023-06-05T12:42:00;5.80;;;1.75;;
8556;SDS011;4316;53.840;10.762;2023-06-05T12:44:26;2.75;;;1.98;;
8556;SDS011;4316;53.840;10.762;2023-06-05T12:46:51;3.22;;;1.95;;
8556;SDS011;4316;53.840;10.762;2023-06-05T12:49:17;4.82;;;1.42;;
8556;SDS011;4316;53.840;10.762;2023-06-05T12:51:43;5.70;;;1.90;;
8556;SDS011;4316;53.840;10.762;2023-06-05T12:54:08;5.07;;;1.58;;
8556;SDS011;4316;53.840;10.762;2023-06-05T12:56:35;3.10;;;1.50;;
8556;SDS011;4316;53.840;10.762;2023-06-05T12:59:01;2.92;;;1.60;;
8556;SDS011;4316;53.840;10.762;2023-06-05T13:01:27;6.38;;;1.95;;
8556;SDS011;4316;53.840;10.762;2023-06-05T13:03:54;3.65;;;2.03;;
8556;SDS011;4316;53.840;10.762;2023-06-05T13:06:20;5.90;;;1.85;;
8556;SDS011;4316;53.840;10.762;2023-06-05T13:08:46;4.05;;;1.42;;
8556;SDS011;4316;53.840;10.762;2023-06-05T13:11:12;6.78;;;1.88;;
8556;SDS011;4316;53.840;10.762;2023-06-05T13:13:38;8.65;;;1.80;;
8556;SDS011;4316;53.840;10.762;2023-06-05T13:16:04;10.52;;;2.30;;
8556;SDS011;4316;53.840;10.762;2023-06-05T13:18:31;4.93;;;1.70;;
8556;SDS011;4316;53.840;10.762;2023-06-05T13:20:59;3.17;;;1.75;;
8556;SDS011;4316;53.840;10.762;2023-06-05T13:23:25;1.80;;;1.60;;
8556;SDS011;4316;53.840;10.762;2023-06-05T13:25:50;5.32;;;1.45;;
8556;SDS011;4316;53.840;10.762;2023-06-05T13:28:16;4.60;;;1.65;;
8556;SDS011;4316;53.840;10.762;2023-06-05T13:30:42;2.80;;;1.88;;
8556;SDS011;4316;53.840;10.762;2023-06-05T13:33:07;3.95;;;2.08;;
8556;SDS011;4316;53.840;10.762;2023-06-05T13:35:33;2.10;;;1.90;;
8556;SDS011;4316;53.840;10.762;2023-06-05T13:37:59;7.93;;;2.80;;
8556;SDS011;4316;53.840;10.762;2023-06-05T13:40:24;7.57;;;2.05;;
8556;SDS011;4316;53.840;10.762;2023-06-05T13:42:52;4.35;;;1.70;;
8556;SDS011;4316;53.840;10.762;2023-06-05T13:45:18;4.68;;;2.08;;
8556;SDS011;4316;53.840;10.762;2023-06-05T13:47:44;5.30;;;1.88;;
8556;SDS011;4316;53.840;10.762;2023-06-05T13:50:10;2.35;;;1.70;;
8556;SDS011;4316;53.840;10.762;2023-06-05T13:52:35;6.25;;;2.15;;
8556;SDS011;4316;53.840;10.762;2023-06-05T13:55:01;3.60;;;1.92;;
8556;SDS011;4316;53.840;10.762;2023-06-05T13:57:27;7.97;;;2.00;;
8556;SDS011;4316;53.840;10.762;2023-06-05T13:59:53;6.35;;;2.38;;
8556;SDS011;4316;53.840;10.762;2023-06-05T14:02:20;3.80;;;1.90;;
8556;SDS011;4316;53.840;10.762;2023-06-05T14:04:46;5.63;;;1.95;;
8556;SDS011;4316;53.840;10.762;2023-06-05T14:07:11;6.75;;;1.80;;
8556;SDS011;4316;53.840;10.762;2023-06-05T14:09:37;4.72;;;1.75;;
8556;SDS011;4316;53.840;10.762;2023-06-05T14:12:03;2.45;;;1.70;;
8556;SDS011;4316;53.840;10.762;2023-06-05T14:14:32;7.80;;;1.95;;
8556;SDS011;4316;53.840;10.762;2023-06-05T14:16:57;4.95;;;1.92;;
8556;SDS011;4316;53.840;10.762;2023-06-05T14:19:23;6.75;;;2.22;;
8556;SDS011;4316;53.840;10.762;2023-06-05T14:21:49;3.50;;;1.80;;
8556;SDS011;4316;53.840;10.762;2023-06-05T14:24:14;8.52;;;2.20;;
8556;SDS011;4316;53.840;10.762;2023-06-05T14:26:40;9.85;;;2.28;;
8556;SDS011;4316;53.840;10.762;2023-06-05T14:29:06;7.15;;;1.65;;
8556;SDS011;4316;53.840;10.762;2023-06-05T14:31:31;8.32;;;1.92;;
8556;SDS011;4316;53.840;10.762;2023-06-05T14:33:57;3.90;;;1.90;;
8556;SDS011;4316;53.840;10.762;2023-06-05T14:36:22;6.68;;;1.77;;
8556;SDS011;4316;53.840;10.762;2023-06-05T14:38:48;4.22;;;2.13;;
8556;SDS011;4316;53.840;10.762;2023-06-05T14:41:13;4.20;;;2.20;;
8556;SDS011;4316;53.840;10.762;2023-06-05T14:43:40;12.10;;;2.28;;
8556;SDS011;4316;53.840;10.762;2023-06-05T14:46:05;6.65;;;2.40;;
8556;SDS011;4316;53.840;10.762;2023-06-05T14:48:31;11.73;;;2.38;;
8556;SDS011;4316;53.840;10.762;2023-06-05T14:50:56;10.90;;;2.33;;
8556;SDS011;4316;53.840;10.762;2023-06-05T14:53:23;6.70;;;2.15;;
8556;SDS011;4316;53.840;10.762;2023-06-05T14:55:49;7.82;;;1.83;;
8556;SDS011;4316;53.840;10.762;2023-06-05T14:58:15;5.35;;;2.13;;
8556;SDS011;4316;53.840;10.762;2023-06-05T15:00:41;5.03;;;2.00;;
8556;SDS011;4316;53.840;10.762;2023-06-05T15:03:07;10.52;;;2.38;;
8556;SDS011;4316;53.840;10.762;2023-06-05T15:05:32;4.90;;;2.40;;
8556;SDS011;4316;53.840;10.762;2023-06-05T15:07:58;5.72;;;2.20;;
8556;SDS011;4316;53.840;10.762;2023-06-05T15:10:24;5.25;;;1.70;;
8556;SDS011;4316;53.840;10.762;2023-06-05T15:12:50;10.65;;;2.38;;
8556;SDS011;4316;53.840;10.762;2023-06-05T15:15:21;5.30;;;2.10;;
8556;SDS011;4316;53.840;10.762;2023-06-05T15:17:47;6.30;;;1.80;;
8556;SDS011;4316;53.840;10.762;2023-06-05T15:20:13;2.30;;;1.48;;
8556;SDS011;4316;53.840;10.762;2023-06-05T15:22:39;3.53;;;1.70;;
8556;SDS011;4316;53.840;10.762;2023-06-05T15:25:05;4.38;;;2.00;;
8556;SDS011;4316;53.840;10.762;2023-06-05T15:27:31;5.22;;;2.20;;
8556;SDS011;4316;53.840;10.762;2023-06-05T15:29:57;5.15;;;1.83;;
8556;SDS011;4316;53.840;10.762;2023-06-05T15:32:22;3.85;;;2.00;;
8556;SDS011;4316;53.840;10.762;2023-06-05T15:34:48;2.65;;;1.90;;
8556;SDS011;4316;53.840;10.762;2023-06-05T15:37:13;5.63;;;1.98;;
8556;SDS011;4316;53.840;10.762;2023-06-05T15:39:41;4.25;;;1.90;;
8556;SDS011;4316;53.840;10.762;2023-06-05T15:42:07;5.68;;;2.30;;
8556;SDS011;4316;53.840;10.762;2023-06-05T15:44:36;4.50;;;1.85;;
8556;SDS011;4316;53.840;10.762;2023-06-05T15:47:04;8.75;;;1.90;;
8556;SDS011;4316;53.840;10.762;2023-06-05T15:49:31;5.43;;;1.98;;